TimeEDT,TemperatureF,Dew PointF,Humidity,Sea Level PressureIn,VisibilityMPH,Wind Direction,Wind SpeedMPH,Gust SpeedMPH,PrecipitationIn,Events,Conditions,WindDirDegrees,DateUTC
12:53 AM,73.0,66.0,79,30.10,10.0,Calm,Calm,-,N/A,,Clear,0,2013-09-10 04:53:00
1:53 AM,70.0,66.9,90,30.12,10.0,ENE,3.5,-,N/A,,Clear,60,2013-09-10 05:53:00
2:53 AM,69.1,66.9,93,30.12,6.0,East,3.5,-,N/A,,Clear,80,2013-09-10 06:53:00
3:53 AM,71.1,66.9,87,30.12,9.0,Calm,Calm,-,N/A,,Clear,0,2013-09-10 07:53:00
4:53 AM,68.0,66.0,93,30.13,6.0,Calm,Calm,-,N/A,,Clear,0,2013-09-10 08:53:00
5:53 AM,68.0,66.0,93,30.14,5.0,ENE,3.5,-,N/A,,Clear,60,2013-09-10 09:53:00
6:53 AM,68.0,66.0,93,30.16,5.0,Calm,Calm,-,N/A,,Clear,0,2013-09-10 10:53:00
7:53 AM,68.0,66.0,93,30.18,5.0,Calm,Calm,-,N/A,,Clear,0,2013-09-10 11:53:00
8:53 AM,71.1,68.0,90,30.19,5.0,NE,3.5,-,N/A,,Clear,50,2013-09-10 12:53:00
9:53 AM,77.0,69.1,76,30.21,8.0,NNE,5.8,-,N/A,,Clear,20,2013-09-10 13:53:00
10:53 AM,80.1,69.1,69,30.21,10.0,NNE,6.9,-,N/A,,Clear,20,2013-09-10 14:53:00
11:53 AM,82.9,66.9,58,30.21,10.0,Calm,Calm,-,N/A,,Partly Cloudy,0,2013-09-10 15:53:00
12:53 PM,84.9,66.0,53,30.19,10.0,Calm,Calm,-,N/A,,Partly Cloudy,0,2013-09-10 16:53:00
1:53 PM,87.1,66.9,51,30.18,10.0,Variable,4.6,-,N/A,,Partly Cloudy,0,2013-09-10 17:53:00
2:53 PM,88.0,64.9,46,30.16,10.0,Calm,Calm,-,N/A,,Scattered Clouds,0,2013-09-10 18:53:00
3:53 PM,89.1,66.0,46,30.14,10.0,NNW,6.9,-,N/A,,Scattered Clouds,340,2013-09-10 19:53:00
4:53 PM,88.0,66.0,48,30.12,10.0,Calm,Calm,-,N/A,,Scattered Clouds,0,2013-09-10 20:53:00
5:53 PM,88.0,66.0,48,30.11,10.0,WNW,4.6,-,N/A,,Partly Cloudy,300,2013-09-10 21:53:00
6:53 PM,87.1,66.0,49,30.12,10.0,NW,3.5,-,N/A,,Partly Cloudy,320,2013-09-10 22:53:00
7:53 PM,84.0,66.0,55,30.12,10.0,Calm,Calm,-,N/A,,Scattered Clouds,0,2013-09-10 23:53:00
8:53 PM,80.1,66.0,62,30.17,10.0,SE,17.3,-,N/A,,Mostly Cloudy,140,2013-09-11 00:53:00
9:53 PM,75.0,68.0,79,30.20,10.0,South,16.1,-,N/A,Thunderstorm,Thunderstorm,190,2013-09-11 01:53:00
10:18 PM,73.4,68.0,83,30.23,10.0,South,6.9,-,0.00,Rain,Light Rain,180,2013-09-11 02:18:00
10:53 PM,73.9,68.0,82,30.19,10.0,South,8.1,-,0.00,Rain,Light Rain,170,2013-09-11 02:53:00
11:53 PM,73.0,68.0,84,30.19,10.0,SSW,4.6,-,0.00,,Mostly Cloudy,210,2013-09-11 03:53:00